sensor_id;sensor_type;location;lat;lon;timestamp;temperature;humidity
13591;DHT22;6866;50.778;7.206;2023-07-16T00:00:25;22.00;83.50
13591;DHT22;6866;50.778;7.206;2023-07-16T00:02:51;22.00;84.10
13591;DHT22;6866;50.778;7.206;2023-07-16T00:05:16;21.90;85.70
13591;DHT22;6866;50.778;7.206;2023-07-16T00:07:42;21.90;85.00
13591;DHT22;6866;50.778;7.206;2023-07-16T00:10:08;21.80;85.50
13591;DHT22;6866;50.778;7.206;2023-07-16T00:12:33;21.80;85.00
13591;DHT22;6866;50.778;7.206;2023-07-16T00:14:59;21.70;85.50
13591;DHT22;6866;50.778;7.206;2023-07-16T00:17:24;21.70;85.30
13591;DHT22;6866;50.778;7.206;2023-07-16T00:19:50;21.80;85.20
13591;DHT22;6866;50.778;7.206;2023-07-16T00:22:15;21.70;86.30
13591;DHT22;6866;50.778;7.206;2023-07-16T00:24:41;21.60;86.20
13591;DHT22;6866;50.778;7.206;2023-07-16T00:27:06;21.60;86.60
13591;DHT22;6866;50.778;7.206;2023-07-16T00:29:32;21.60;86.30
13591;DHT22;6866;50.778;7.206;2023-07-16T00:31:58;21.60;86.50
13591;DHT22;6866;50.778;7.206;2023-07-16T00:34:23;21.60;86.40
13591;DHT22;6866;50.778;7.206;2023-07-16T00:36:49;21.60;85.90
13591;DHT22;6866;50.778;7.206;2023-07-16T00:39:14;21.60;85.90
13591;DHT22;6866;50.778;7.206;2023-07-16T00:41:40;21.50;85.30
13591;DHT22;6866;50.778;7.206;2023-07-16T00:44:05;21.50;86.30
13591;DHT22;6866;50.778;7.206;2023-07-16T00:46:31;21.40;85.90
13591;DHT22;6866;50.778;7.206;2023-07-16T00:48:56;21.40;86.50
13591;DHT22;6866;50.778;7.206;2023-07-16T00:51:24;21.40;86.90
13591;DHT22;6866;50.778;7.206;2023-07-16T00:53:50;21.30;86.40
13591;DHT22;6866;50.778;7.206;2023-07-16T00:56:17;21.30;86.70
13591;DHT22;6866;50.778;7.206;2023-07-16T00:58:45;21.40;86.80
13591;DHT22;6866;50.778;7.206;2023-07-16T01:03:46;21.40;87.90
13591;DHT22;6866;50.778;7.206;2023-07-16T01:06:21;21.20;88.30
13591;DHT22;6866;50.778;7.206;2023-07-16T01:08:55;21.20;89.30
13591;DHT22;6866;50.778;7.206;2023-07-16T01:11:22;21.20;89.10
13591;DHT22;6866;50.778;7.206;2023-07-16T01:13:48;21.20;89.20
13591;DHT22;6866;50.778;7.206;2023-07-16T01:16:21;21.10;89.10
13591;DHT22;6866;50.778;7.206;2023-07-16T01:18:47;21.10;89.90
13591;DHT22;6866;50.778;7.206;2023-07-16T01:21:12;21.00;90.40
13591;DHT22;6866;50.778;7.206;2023-07-16T01:31:56;20.90;90.70
13591;DHT22;6866;50.778;7.206;2023-07-16T01:34:23;20.80;91.00
13591;DHT22;6866;50.778;7.206;2023-07-16T01:36:50;20.70;90.90
13591;DHT22;6866;50.778;7.206;2023-07-16T01:39:16;20.70;90.90
13591;DHT22;6866;50.778;7.206;2023-07-16T01:41:42;20.70;90.70
13591;DHT22;6866;50.778;7.206;2023-07-16T01:44:07;20.70;91.00
13591;DHT22;6866;50.778;7.206;2023-07-16T01:46:33;20.60;90.80
13591;DHT22;6866;50.778;7.206;2023-07-16T01:48:59;20.60;90.70
13591;DHT22;6866;50.778;7.206;2023-07-16T01:51:24;20.60;90.60
13591;DHT22;6866;50.778;7.206;2023-07-16T01:53:50;20.60;90.60
13591;DHT22;6866;50.778;7.206;2023-07-16T01:56:16;20.60;90.10
13591;DHT22;6866;50.778;7.206;2023-07-16T01:58:42;20.60;90.60
13591;DHT22;6866;50.778;7.206;2023-07-16T02:01:07;20.60;90.60
13591;DHT22;6866;50.778;7.206;2023-07-16T02:03:33;20.50;90.60
13591;DHT22;6866;50.778;7.206;2023-07-16T02:05:58;20.50;90.70
13591;DHT22;6866;50.778;7.206;2023-07-16T02:08:24;20.50;90.60
13591;DHT22;6866;50.778;7.206;2023-07-16T02:10:50;20.40;90.60
13591;DHT22;6866;50.778;7.206;2023-07-16T02:13:15;20.40;91.00
13591;DHT22;6866;50.778;7.206;2023-07-16T02:15:42;20.40;91.10
13591;DHT22;6866;50.778;7.206;2023-07-16T02:18:08;20.40;91.10
13591;DHT22;6866;50.778;7.206;2023-07-16T02:20:33;20.40;90.90
13591;DHT22;6866;50.778;7.206;2023-07-16T02:22:59;20.30;90.60
13591;DHT22;6866;50.778;7.206;2023-07-16T02:25:24;20.40;90.20
13591;DHT22;6866;50.778;7.206;2023-07-16T02:27:51;20.40;90.50
13591;DHT22;6866;50.778;7.206;2023-07-16T02:30:16;20.30;90.50
13591;DHT22;6866;50.778;7.206;2023-07-16T02:32:42;20.30;90.50
13591;DHT22;6866;50.778;7.206;2023-07-16T02:35:08;20.20;90.80
13591;DHT22;6866;50.778;7.206;2023-07-16T02:37:34;20.20;91.00
13591;DHT22;6866;50.778;7.206;2023-07-16T02:39:59;20.10;90.70
13591;DHT22;6866;50.778;7.206;2023-07-16T02:42:25;20.10;91.10
13591;DHT22;6866;50.778;7.206;2023-07-16T02:44:51;20.10;90.70
13591;DHT22;6866;50.778;7.206;2023-07-16T02:47:17;20.10;90.90
13591;DHT22;6866;50.778;7.206;2023-07-16T02:49:42;20.10;90.80
13591;DHT22;6866;50.778;7.206;2023-07-16T02:52:08;20.00;90.70
13591;DHT22;6866;50.778;7.206;2023-07-16T02:54:35;20.00;90.30
13591;DHT22;6866;50.778;7.206;2023-07-16T02:57:01;20.00;90.30
13591;DHT22;6866;50.778;7.206;2023-07-16T02:59:27;19.90;90.50
13591;DHT22;6866;50.778;7.206;2023-07-16T03:01:52;19.90;90.50
13591;DHT22;6866;50.778;7.206;2023-07-16T03:04:19;19.90;90.40
13591;DHT22;6866;50.778;7.206;2023-07-16T03:06:44;19.90;90.40
13591;DHT22;6866;50.778;7.206;2023-07-16T03:09:10;19.90;90.30
13591;DHT22;6866;50.778;7.206;2023-07-16T03:11:36;19.90;90.60
13591;DHT22;6866;50.778;7.206;2023-07-16T03:14:02;19.80;90.70
13591;DHT22;6866;50.778;7.206;2023-07-16T03:16:27;19.70;90.80
13591;DHT22;6866;50.778;7.206;2023-07-16T03:18:53;19.70;90.50
13591;DHT22;6866;50.778;7.206;2023-07-16T03:21:19;19.70;90.90
13591;DHT22;6866;50.778;7.206;2023-07-16T03:23:45;19.80;91.50
13591;DHT22;6866;50.778;7.206;2023-07-16T03:26:10;19.70;90.70
13591;DHT22;6866;50.778;7.206;2023-07-16T03:28:36;19.70;91.00
13591;DHT22;6866;50.778;7.206;2023-07-16T03:31:01;19.70;90.90
13591;DHT22;6866;50.778;7.206;2023-07-16T03:33:27;19.70;90.80
13591;DHT22;6866;50.778;7.206;2023-07-16T03:35:52;19.60;90.80
13591;DHT22;6866;50.778;7.206;2023-07-16T03:38:18;19.60;91.20
13591;DHT22;6866;50.778;7.206;2023-07-16T03:40:47;19.60;91.30
13591;DHT22;6866;50.778;7.206;2023-07-16T03:43:13;19.50;91.40
13591;DHT22;6866;50.778;7.206;2023-07-16T03:45:39;19.50;91.70
13591;DHT22;6866;50.778;7.206;2023-07-16T03:48:05;19.60;91.80
13591;DHT22;6866;50.778;7.206;2023-07-16T03:50:30;19.60;91.60
13591;DHT22;6866;50.778;7.206;2023-07-16T03:52:56;19.50;92.00
13591;DHT22;6866;50.778;7.206;2023-07-16T03:55:21;19.50;91.90
13591;DHT22;6866;50.778;7.206;2023-07-16T03:57:47;19.50;91.90
13591;DHT22;6866;50.778;7.206;2023-07-16T04:00:13;19.50;91.70
13591;DHT22;6866;50.778;7.206;2023-07-16T04:02:38;19.40;91.70
13591;DHT22;6866;50.778;7.206;2023-07-16T04:05:04;19.50;92.00
13591;DHT22;6866;50.778;7.206;2023-07-16T04:07:30;19.60;91.70
13591;DHT22;6866;50.778;7.206;2023-07-16T04:09:55;19.50;91.50
13591;DHT22;6866;50.778;7.206;2023-07-16T04:12:21;19.50;91.30
13591;DHT22;6866;50.778;7.206;2023-07-16T04:14:47;19.50;91.40
13591;DHT22;6866;50.778;7.206;2023-07-16T04:17:12;19.50;91.40
13591;DHT22;6866;50.778;7.206;2023-07-16T04:19:38;19.50;91.20
13591;DHT22;6866;50.778;7.206;2023-07-16T04:22:04;19.50;91.10
13591;DHT22;6866;50.778;7.206;2023-07-16T04:24:30;19.70;90.90
13591;DHT22;6866;50.778;7.206;2023-07-16T04:26:55;19.60;91.20
13591;DHT22;6866;50.778;7.206;2023-07-16T04:29:21;19.50;90.80
13591;DHT22;6866;50.778;7.206;2023-07-16T04:31:47;19.60;90.80
13591;DHT22;6866;50.778;7.206;2023-07-16T04:34:12;19.60;90.20
13591;DHT22;6866;50.778;7.206;2023-07-16T04:36:38;19.60;90.00
13591;DHT22;6866;50.778;7.206;2023-07-16T04:39:04;19.60;90.10
13591;DHT22;6866;50.778;7.206;2023-07-16T04:41:30;19.70;89.10
13591;DHT22;6866;50.778;7.206;2023-07-16T04:43:56;19.70;89.60
13591;DHT22;6866;50.778;7.206;2023-07-16T04:46:21;19.70;90.00
13591;DHT22;6866;50.778;7.206;2023-07-16T04:48:47;19.60;89.70
13591;DHT22;6866;50.778;7.206;2023-07-16T04:51:13;19.70;89.60
13591;DHT22;6866;50.778;7.206;2023-07-16T04:53:39;19.70;89.30
13591;DHT22;6866;50.778;7.206;2023-07-16T04:56:04;19.80;89.50
13591;DHT22;6866;50.778;7.206;2023-07-16T04:58:35;19.70;89.00
13591;DHT22;6866;50.778;7.206;2023-07-16T05:01:01;19.80;88.80
13591;DHT22;6866;50.778;7.206;2023-07-16T05:03:26;19.80;88.50
13591;DHT22;6866;50.778;7.206;2023-07-16T05:05:52;19.80;88.00
13591;DHT22;6866;50.778;7.206;2023-07-16T05:08:17;19.90;88.60
13591;DHT22;6866;50.778;7.206;2023-07-16T05:10:43;19.90;87.40
13591;DHT22;6866;50.778;7.206;2023-07-16T05:13:08;19.90;85.60
13591;DHT22;6866;50.778;7.206;2023-07-16T05:15:34;20.80;84.30
13591;DHT22;6866;50.778;7.206;2023-07-16T05:17:59;22.10;76.50
13591;DHT22;6866;50.778;7.206;2023-07-16T05:20:25;22.10;74.40
13591;DHT22;6866;50.778;7.206;2023-07-16T05:22:50;22.30;72.20
13591;DHT22;6866;50.778;7.206;2023-07-16T05:25:16;22.40;70.50
13591;DHT22;6866;50.778;7.206;2023-07-16T05:27:41;25.00;64.00
13591;DHT22;6866;50.778;7.206;2023-07-16T05:30:07;26.10;59.00
13591;DHT22;6866;50.778;7.206;2023-07-16T05:32:33;27.50;54.40
13591;DHT22;6866;50.778;7.206;2023-07-16T05:34:59;28.30;51.50
13591;DHT22;6866;50.778;7.206;2023-07-16T05:37:26;28.10;47.90
13591;DHT22;6866;50.778;7.206;2023-07-16T05:39:52;28.20;47.60
13591;DHT22;6866;50.778;7.206;2023-07-16T05:42:17;26.20;51.20
13591;DHT22;6866;50.778;7.206;2023-07-16T05:44:43;26.90;52.50
13591;DHT22;6866;50.778;7.206;2023-07-16T05:47:10;27.20;49.10
13591;DHT22;6866;50.778;7.206;2023-07-16T05:49:35;28.30;48.10
13591;DHT22;6866;50.778;7.206;2023-07-16T05:52:01;28.70;46.90
13591;DHT22;6866;50.778;7.206;2023-07-16T05:54:26;29.60;43.70
13591;DHT22;6866;50.778;7.206;2023-07-16T05:56:52;30.20;45.60
13591;DHT22;6866;50.778;7.206;2023-07-16T05:59:18;30.60;63.60
13591;DHT22;6866;50.778;7.206;2023-07-16T06:01:44;31.90;64.70
13591;DHT22;6866;50.778;7.206;2023-07-16T06:04:09;31.10;48.10
13591;DHT22;6866;50.778;7.206;2023-07-16T06:06:34;31.70;40.50
13591;DHT22;6866;50.778;7.206;2023-07-16T06:09:00;31.40;40.10
13591;DHT22;6866;50.778;7.206;2023-07-16T06:11:25;31.30;37.60
13591;DHT22;6866;50.778;7.206;2023-07-16T06:13:53;31.60;38.00
13591;DHT22;6866;50.778;7.206;2023-07-16T06:16:18;31.10;37.70
13591;DHT22;6866;50.778;7.206;2023-07-16T06:18:43;31.70;36.90
13591;DHT22;6866;50.778;7.206;2023-07-16T06:21:09;31.90;37.00
13591;DHT22;6866;50.778;7.206;2023-07-16T06:23:34;32.10;36.50
13591;DHT22;6866;50.778;7.206;2023-07-16T06:26:00;32.30;36.10
13591;DHT22;6866;50.778;7.206;2023-07-16T06:28:25;32.10;36.40
13591;DHT22;6866;50.778;7.206;2023-07-16T06:30:51;32.10;34.40
13591;DHT22;6866;50.778;7.206;2023-07-16T06:33:19;31.90;35.60
13591;DHT22;6866;50.778;7.206;2023-07-16T06:35:45;32.00;34.80
13591;DHT22;6866;50.778;7.206;2023-07-16T06:38:11;32.40;34.40
13591;DHT22;6866;50.778;7.206;2023-07-16T06:40:37;32.40;33.80
13591;DHT22;6866;50.778;7.206;2023-07-16T06:43:03;31.80;33.10
13591;DHT22;6866;50.778;7.206;2023-07-16T06:45:28;32.70;34.10
13591;DHT22;6866;50.778;7.206;2023-07-16T06:47:54;31.90;34.80
13591;DHT22;6866;50.778;7.206;2023-07-16T06:50:19;32.00;33.80
13591;DHT22;6866;50.778;7.206;2023-07-16T06:52:45;32.10;34.30
13591;DHT22;6866;50.778;7.206;2023-07-16T06:55:10;32.10;33.80
13591;DHT22;6866;50.778;7.206;2023-07-16T06:57:36;31.10;34.60
13591;DHT22;6866;50.778;7.206;2023-07-16T07:00:01;31.30;34.20
13591;DHT22;6866;50.778;7.206;2023-07-16T07:02:27;32.50;34.10
13591;DHT22;6866;50.778;7.206;2023-07-16T07:04:52;32.20;32.40
13591;DHT22;6866;50.778;7.206;2023-07-16T07:07:18;31.70;33.10
13591;DHT22;6866;50.778;7.206;2023-07-16T07:09:46;31.50;33.90
13591;DHT22;6866;50.778;7.206;2023-07-16T07:12:12;30.90;31.90
13591;DHT22;6866;50.778;7.206;2023-07-16T07:14:37;30.30;32.30
13591;DHT22;6866;50.778;7.206;2023-07-16T07:17:03;31.70;33.10
13591;DHT22;6866;50.778;7.206;2023-07-16T07:19:28;31.90;31.90
13591;DHT22;6866;50.778;7.206;2023-07-16T07:21:54;30.40;33.90
13591;DHT22;6866;50.778;7.206;2023-07-16T07:24:19;29.70;34.70
13591;DHT22;6866;50.778;7.206;2023-07-16T07:26:45;30.30;33.90
13591;DHT22;6866;50.778;7.206;2023-07-16T07:29:10;30.40;33.90
13591;DHT22;6866;50.778;7.206;2023-07-16T07:31:36;31.60;32.50
13591;DHT22;6866;50.778;7.206;2023-07-16T07:34:01;31.60;31.20
13591;DHT22;6866;50.778;7.206;2023-07-16T07:36:28;31.80;31.00
13591;DHT22;6866;50.778;7.206;2023-07-16T07:38:53;31.30;30.80
13591;DHT22;6866;50.778;7.206;2023-07-16T07:41:19;31.20;31.20
13591;DHT22;6866;50.778;7.206;2023-07-16T07:43:44;31.90;30.50
13591;DHT22;6866;50.778;7.206;2023-07-16T07:46:10;31.90;29.80
13591;DHT22;6866;50.778;7.206;2023-07-16T07:48:35;32.60;30.20
13591;DHT22;6866;50.778;7.206;2023-07-16T07:51:01;32.20;30.20
13591;DHT22;6866;50.778;7.206;2023-07-16T07:53:26;32.20;30.00
13591;DHT22;6866;50.778;7.206;2023-07-16T07:55:51;32.30;30.70
13591;DHT22;6866;50.778;7.206;2023-07-16T07:58:17;32.40;29.40
13591;DHT22;6866;50.778;7.206;2023-07-16T08:00:42;31.70;29.00
13591;DHT22;6866;50.778;7.206;2023-07-16T08:03:08;31.60;29.40
13591;DHT22;6866;50.778;7.206;2023-07-16T08:05:33;31.60;28.80
13591;DHT22;6866;50.778;7.206;2023-07-16T08:07:59;31.60;29.90
13591;DHT22;6866;50.778;7.206;2023-07-16T08:10:24;32.30;29.70
13591;DHT22;6866;50.778;7.206;2023-07-16T08:12:50;32.00;28.90
13591;DHT22;6866;50.778;7.206;2023-07-16T08:15:15;31.40;29.20
13591;DHT22;6866;50.778;7.206;2023-07-16T08:17:41;32.50;29.50
13591;DHT22;6866;50.778;7.206;2023-07-16T08:20:07;32.30;29.00
13591;DHT22;6866;50.778;7.206;2023-07-16T08:22:32;32.60;28.50
13591;DHT22;6866;50.778;7.206;2023-07-16T08:24:58;32.10;29.40
13591;DHT22;6866;50.778;7.206;2023-07-16T08:27:23;31.80;28.80
13591;DHT22;6866;50.778;7.206;2023-07-16T08:29:49;32.50;28.70
13591;DHT22;6866;50.778;7.206;2023-07-16T08:32:14;32.50;28.30
13591;DHT22;6866;50.778;7.206;2023-07-16T08:34:40;31.70;28.40
13591;DHT22;6866;50.778;7.206;2023-07-16T08:37:05;32.40;28.80
13591;DHT22;6866;50.778;7.206;2023-07-16T08:39:31;32.40;28.60
13591;DHT22;6866;50.778;7.206;2023-07-16T08:41:56;32.00;28.30
13591;DHT22;6866;50.778;7.206;2023-07-16T08:44:22;32.30;28.70
13591;DHT22;6866;50.778;7.206;2023-07-16T08:46:48;31.70;28.60
13591;DHT22;6866;50.778;7.206;2023-07-16T08:49:13;32.00;28.50
13591;DHT22;6866;50.778;7.206;2023-07-16T08:51:42;31.70;29.10
13591;DHT22;6866;50.778;7.206;2023-07-16T08:54:08;31.60;28.30
13591;DHT22;6866;50.778;7.206;2023-07-16T08:56:33;31.40;28.90
13591;DHT22;6866;50.778;7.206;2023-07-16T08:58:59;31.60;28.80
13591;DHT22;6866;50.778;7.206;2023-07-16T09:01:25;31.40;27.80
13591;DHT22;6866;50.778;7.206;2023-07-16T09:03:50;30.50;29.10
13591;DHT22;6866;50.778;7.206;2023-07-16T09:06:16;30.80;29.40
13591;DHT22;6866;50.778;7.206;2023-07-16T09:08:41;31.20;28.80
13591;DHT22;6866;50.778;7.206;2023-07-16T09:11:11;31.20;29.40
13591;DHT22;6866;50.778;7.206;2023-07-16T09:13:44;31.00;29.50
13591;DHT22;6866;50.778;7.206;2023-07-16T09:16:09;30.60;29.10
13591;DHT22;6866;50.778;7.206;2023-07-16T09:18:35;30.50;29.30
13591;DHT22;6866;50.778;7.206;2023-07-16T09:21:00;30.70;29.90
13591;DHT22;6866;50.778;7.206;2023-07-16T09:23:30;30.20;29.40
13591;DHT22;6866;50.778;7.206;2023-07-16T09:25:56;30.20;29.90
13591;DHT22;6866;50.778;7.206;2023-07-16T09:28:22;29.80;29.90
13591;DHT22;6866;50.778;7.206;2023-07-16T09:30:49;29.30;29.40
13591;DHT22;6866;50.778;7.206;2023-07-16T09:33:20;29.10;30.00
13591;DHT22;6866;50.778;7.206;2023-07-16T09:35:50;29.20;30.70
13591;DHT22;6866;50.778;7.206;2023-07-16T09:38:17;29.10;30.50
13591;DHT22;6866;50.778;7.206;2023-07-16T09:40:42;29.70;30.60
13591;DHT22;6866;50.778;7.206;2023-07-16T09:43:08;29.80;30.00
13591;DHT22;6866;50.778;7.206;2023-07-16T09:45:34;29.70;30.00
13591;DHT22;6866;50.778;7.206;2023-07-16T09:48:00;30.20;29.50
13591;DHT22;6866;50.778;7.206;2023-07-16T09:50:28;29.50;30.00
13591;DHT22;6866;50.778;7.206;2023-07-16T09:52:56;29.70;29.90
13591;DHT22;6866;50.778;7.206;2023-07-16T09:55:22;30.30;29.80
13591;DHT22;6866;50.778;7.206;2023-07-16T09:57:49;30.60;29.30
13591;DHT22;6866;50.778;7.206;2023-07-16T10:00:17;29.90;31.50
13591;DHT22;6866;50.778;7.206;2023-07-16T10:02:44;29.80;31.30
13591;DHT22;6866;50.778;7.206;2023-07-16T10:07:39;29.40;30.80
13591;DHT22;6866;50.778;7.206;2023-07-16T10:10:09;29.40;31.80
13591;DHT22;6866;50.778;7.206;2023-07-16T10:12:36;29.20;31.40
13591;DHT22;6866;50.778;7.206;2023-07-16T10:15:02;29.40;32.30
13591;DHT22;6866;50.778;7.206;2023-07-16T10:17:30;29.40;30.80
13591;DHT22;6866;50.778;7.206;2023-07-16T10:19:56;29.60;31.90
13591;DHT22;6866;50.778;7.206;2023-07-16T10:25:25;28.70;32.10
13591;DHT22;6866;50.778;7.206;2023-07-16T10:27:53;28.80;32.60
13591;DHT22;6866;50.778;7.206;2023-07-16T10:30:19;29.20;31.40
13591;DHT22;6866;50.778;7.206;2023-07-16T10:32:45;29.30;30.10
13591;DHT22;6866;50.778;7.206;2023-07-16T10:35:12;29.20;30.70
13591;DHT22;6866;50.778;7.206;2023-07-16T10:37:38;28.80;30.70
13591;DHT22;6866;50.778;7.206;2023-07-16T10:40:09;28.70;31.00
13591;DHT22;6866;50.778;7.206;2023-07-16T10:42:35;29.10;31.10
13591;DHT22;6866;50.778;7.206;2023-07-16T10:45:03;29.70;30.20
13591;DHT22;6866;50.778;7.206;2023-07-16T10:47:36;29.80;30.50
13591;DHT22;6866;50.778;7.206;2023-07-16T10:50:06;29.70;30.30
13591;DHT22;6866;50.778;7.206;2023-07-16T10:52:33;28.80;30.50
13591;DHT22;6866;50.778;7.206;2023-07-16T10:54:58;29.30;31.10
13591;DHT22;6866;50.778;7.206;2023-07-16T10:57:25;29.60;30.00
13591;DHT22;6866;50.778;7.206;2023-07-16T10:59:52;29.30;30.40
13591;DHT22;6866;50.778;7.206;2023-07-16T11:02:18;29.50;30.90
13591;DHT22;6866;50.778;7.206;2023-07-16T11:04:45;29.70;30.00
13591;DHT22;6866;50.778;7.206;2023-07-16T11:07:12;29.30;29.90
13591;DHT22;6866;50.778;7.206;2023-07-16T11:09:42;29.20;30.70
13591;DHT22;6866;50.778;7.206;2023-07-16T11:12:10;29.20;30.50
13591;DHT22;6866;50.778;7.206;2023-07-16T11:14:36;29.00;29.60
13591;DHT22;6866;50.778;7.206;2023-07-16T11:17:08;28.70;30.20
13591;DHT22;6866;50.778;7.206;2023-07-16T11:19:35;29.00;30.90
13591;DHT22;6866;50.778;7.206;2023-07-16T11:22:02;28.60;30.30
13591;DHT22;6866;50.778;7.206;2023-07-16T11:24:28;28.10;31.70
13591;DHT22;6866;50.778;7.206;2023-07-16T11:26:55;28.20;31.30
13591;DHT22;6866;50.778;7.206;2023-07-16T11:29:22;28.50;31.10
13591;DHT22;6866;50.778;7.206;2023-07-16T11:31:52;28.90;30.90
13591;DHT22;6866;50.778;7.206;2023-07-16T11:34:21;28.50;31.90
13591;DHT22;6866;50.778;7.206;2023-07-16T11:36:50;28.20;32.10
13591;DHT22;6866;50.778;7.206;2023-07-16T11:39:15;28.10;31.60
13591;DHT22;6866;50.778;7.206;2023-07-16T11:41:41;28.30;31.60
13591;DHT22;6866;50.778;7.206;2023-07-16T11:44:10;28.80;31.00
13591;DHT22;6866;50.778;7.206;2023-07-16T11:46:36;29.30;31.30
13591;DHT22;6866;50.778;7.206;2023-07-16T11:49:02;29.50;31.10
13591;DHT22;6866;50.778;7.206;2023-07-16T11:51:27;29.30;31.30
13591;DHT22;6866;50.778;7.206;2023-07-16T11:53:55;28.50;31.00
13591;DHT22;6866;50.778;7.206;2023-07-16T11:56:20;28.60;31.40
13591;DHT22;6866;50.778;7.206;2023-07-16T11:58:47;29.00;31.40
13591;DHT22;6866;50.778;7.206;2023-07-16T12:01:12;29.40;31.50
13591;DHT22;6866;50.778;7.206;2023-07-16T12:03:40;29.50;30.40
13591;DHT22;6866;50.778;7.206;2023-07-16T12:06:05;29.50;30.00
13591;DHT22;6866;50.778;7.206;2023-07-16T12:08:31;29.00;29.60
13591;DHT22;6866;50.778;7.206;2023-07-16T12:10:56;28.40;30.40
13591;DHT22;6866;50.778;7.206;2023-07-16T12:13:22;28.70;31.60
13591;DHT22;6866;50.778;7.206;2023-07-16T12:15:47;28.90;31.50
13591;DHT22;6866;50.778;7.206;2023-07-16T12:18:13;29.20;30.60
13591;DHT22;6866;50.778;7.206;2023-07-16T12:20:38;29.30;30.30
13591;DHT22;6866;50.778;7.206;2023-07-16T12:23:05;29.50;29.80
13591;DHT22;6866;50.778;7.206;2023-07-16T12:25:30;29.50;30.90
13591;DHT22;6866;50.778;7.206;2023-07-16T12:27:56;29.30;29.90
13591;DHT22;6866;50.778;7.206;2023-07-16T12:30:23;28.90;30.50
13591;DHT22;6866;50.778;7.206;2023-07-16T12:32:49;28.60;30.00
13591;DHT22;6866;50.778;7.206;2023-07-16T12:35:14;28.50;30.90
13591;DHT22;6866;50.778;7.206;2023-07-16T12:37:41;28.60;31.60
13591;DHT22;6866;50.778;7.206;2023-07-16T12:40:07;27.80;30.80
13591;DHT22;6866;50.778;7.206;2023-07-16T12:42:33;27.90;31.40
13591;DHT22;6866;50.778;7.206;2023-07-16T12:45:00;29.00;32.40
13591;DHT22;6866;50.778;7.206;2023-07-16T12:47:25;29.10;30.60
13591;DHT22;6866;50.778;7.206;2023-07-16T12:49:51;29.50;30.60
13591;DHT22;6866;50.778;7.206;2023-07-16T12:52:16;29.70;29.50
13591;DHT22;6866;50.778;7.206;2023-07-16T12:54:42;29.30;29.90
13591;DHT22;6866;50.778;7.206;2023-07-16T12:57:08;29.00;29.60
13591;DHT22;6866;50.778;7.206;2023-07-16T12:59:33;29.20;29.80
13591;DHT22;6866;50.778;7.206;2023-07-16T13:01:59;28.70;30.40
13591;DHT22;6866;50.778;7.206;2023-07-16T13:04:24;29.10;29.60
13591;DHT22;6866;50.778;7.206;2023-07-16T13:06:50;28.80;29.70
13591;DHT22;6866;50.778;7.206;2023-07-16T13:09:15;28.60;29.80
13591;DHT22;6866;50.778;7.206;2023-07-16T13:11:42;28.90;30.20
13591;DHT22;6866;50.778;7.206;2023-07-16T13:14:08;29.00;30.50
13591;DHT22;6866;50.778;7.206;2023-07-16T13:16:33;28.80;30.30
13591;DHT22;6866;50.778;7.206;2023-07-16T13:18:59;28.50;30.00
13591;DHT22;6866;50.778;7.206;2023-07-16T13:21:24;28.30;31.00
13591;DHT22;6866;50.778;7.206;2023-07-16T13:23:50;28.30;31.00
13591;DHT22;6866;50.778;7.206;2023-07-16T13:26:15;28.90;30.70
13591;DHT22;6866;50.778;7.206;2023-07-16T13:28:41;29.30;29.80
13591;DHT22;6866;50.778;7.206;2023-07-16T13:31:06;29.00;29.20
13591;DHT22;6866;50.778;7.206;2023-07-16T13:33:32;28.90;29.50
13591;DHT22;6866;50.778;7.206;2023-07-16T13:35:57;29.10;29.70
13591;DHT22;6866;50.778;7.206;2023-07-16T13:38:26;29.40;29.50
13591;DHT22;6866;50.778;7.206;2023-07-16T13:40:52;29.70;28.90
13591;DHT22;6866;50.778;7.206;2023-07-16T13:43:17;29.90;28.80
13591;DHT22;6866;50.778;7.206;2023-07-16T13:45:43;29.80;28.60
13591;DHT22;6866;50.778;7.206;2023-07-16T13:48:08;29.30;29.40
13591;DHT22;6866;50.778;7.206;2023-07-16T13:50:34;28.60;29.50
13591;DHT22;6866;50.778;7.206;2023-07-16T13:52:59;28.80;29.50
13591;DHT22;6866;50.778;7.206;2023-07-16T13:55:27;28.80;29.60
13591;DHT22;6866;50.778;7.206;2023-07-16T13:57:53;28.60;30.50
13591;DHT22;6866;50.778;7.206;2023-07-16T14:00:21;28.00;30.40
13591;DHT22;6866;50.778;7.206;2023-07-16T14:02:46;28.10;30.00
13591;DHT22;6866;50.778;7.206;2023-07-16T14:05:12;28.50;30.00
13591;DHT22;6866;50.778;7.206;2023-07-16T14:07:37;28.50;30.20
13591;DHT22;6866;50.778;7.206;2023-07-16T14:10:03;28.50;30.00
13591;DHT22;6866;50.778;7.206;2023-07-16T14:12:29;28.30;29.90
13591;DHT22;6866;50.778;7.206;2023-07-16T14:14:54;28.70;30.10
13591;DHT22;6866;50.778;7.206;2023-07-16T14:17:20;28.60;29.60
13591;DHT22;6866;50.778;7.206;2023-07-16T14:19:45;28.30;30.60
13591;DHT22;6866;50.778;7.206;2023-07-16T14:22:11;27.90;30.20
13591;DHT22;6866;50.778;7.206;2023-07-16T14:24:38;28.10;31.50
13591;DHT22;6866;50.778;7.206;2023-07-16T14:27:06;28.60;31.60
13591;DHT22;6866;50.778;7.206;2023-07-16T14:29:32;28.40;30.00
13591;DHT22;6866;50.778;7.206;2023-07-16T14:31:58;28.40;30.80
13591;DHT22;6866;50.778;7.206;2023-07-16T14:34:25;28.20;30.70
13591;DHT22;6866;50.778;7.206;2023-07-16T14:36:52;27.80;30.10
13591;DHT22;6866;50.778;7.206;2023-07-16T14:39:17;27.80;30.70
13591;DHT22;6866;50.778;7.206;2023-07-16T14:41:43;27.90;31.20
13591;DHT22;6866;50.778;7.206;2023-07-16T14:44:09;28.00;31.40
13591;DHT22;6866;50.778;7.206;2023-07-16T14:46:34;28.30;30.60
13591;DHT22;6866;50.778;7.206;2023-07-16T14:49:00;28.40;29.80
13591;DHT22;6866;50.778;7.206;2023-07-16T14:51:27;28.00;30.30
13591;DHT22;6866;50.778;7.206;2023-07-16T14:53:52;27.90;31.00
13591;DHT22;6866;50.778;7.206;2023-07-16T14:56:18;27.60;30.60
13591;DHT22;6866;50.778;7.206;2023-07-16T14:58:44;27.80;30.60
13591;DHT22;6866;50.778;7.206;2023-07-16T15:01:10;27.80;31.90
13591;DHT22;6866;50.778;7.206;2023-07-16T15:03:35;27.90;30.70
13591;DHT22;6866;50.778;7.206;2023-07-16T15:06:03;27.80;30.70
13591;DHT22;6866;50.778;7.206;2023-07-16T15:08:28;27.70;31.10
13591;DHT22;6866;50.778;7.206;2023-07-16T15:11:00;28.10;30.10
13591;DHT22;6866;50.778;7.206;2023-07-16T15:13:25;28.20;31.00
13591;DHT22;6866;50.778;7.206;2023-07-16T15:15:53;28.20;31.10
13591;DHT22;6866;50.778;7.206;2023-07-16T15:18:20;28.10;31.30
13591;DHT22;6866;50.778;7.206;2023-07-16T15:20:46;28.10;31.10
13591;DHT22;6866;50.778;7.206;2023-07-16T15:23:12;27.90;31.90
13591;DHT22;6866;50.778;7.206;2023-07-16T15:25:41;27.60;30.80
13591;DHT22;6866;50.778;7.206;2023-07-16T15:28:08;27.90;31.10
13591;DHT22;6866;50.778;7.206;2023-07-16T15:30:33;27.70;30.90
13591;DHT22;6866;50.778;7.206;2023-07-16T15:32:59;28.20;31.40
13591;DHT22;6866;50.778;7.206;2023-07-16T15:35:24;28.30;30.30
13591;DHT22;6866;50.778;7.206;2023-07-16T15:37:50;28.00;30.60
13591;DHT22;6866;50.778;7.206;2023-07-16T15:40:15;27.80;31.50
13591;DHT22;6866;50.778;7.206;2023-07-16T15:42:42;27.60;32.20
13591;DHT22;6866;50.778;7.206;2023-07-16T15:45:11;27.60;32.50
13591;DHT22;6866;50.778;7.206;2023-07-16T15:47:42;27.50;32.20
13591;DHT22;6866;50.778;7.206;2023-07-16T15:50:08;27.60;32.70
13591;DHT22;6866;50.778;7.206;2023-07-16T15:52:34;27.50;33.10